createdAt,value
2019-02-25T00:02:03.408Z,49.79
2019-02-25T00:04:29.596Z,50.25
2019-02-25T00:06:55.760Z,51.74
2019-02-25T00:09:21.901Z,51.47
2019-02-25T00:11:50.391Z,52.58
2019-02-25T00:14:16.571Z,52.86
2019-02-25T00:16:42.680Z,52.88
2019-02-25T00:19:08.851Z,52.65
2019-02-25T00:21:35.007Z,52.63
2019-02-25T00:24:01.244Z,52.43
2019-02-25T00:26:29.445Z,52.60
2019-02-25T00:28:56.592Z,52.80
2019-02-25T00:31:22.816Z,52.70
2019-02-25T00:33:49.325Z,53.31
2019-02-25T00:36:15.544Z,53.37
2019-02-25T00:38:41.749Z,53.55
2019-02-25T00:41:08.020Z,53.59
2019-02-25T00:43:34.295Z,53.19
2019-02-25T00:46:00.638Z,52.94
2019-02-25T00:48:26.822Z,52.62
2019-02-25T00:50:53.131Z,52.55
2019-02-25T00:53:19.341Z,52.54
2019-02-25T00:55:47.474Z,52.63
2019-02-25T00:58:13.665Z,53.83
2019-02-25T01:00:41.485Z,53.80
2019-02-25T01:03:12.493Z,54.78
2019-02-25T01:05:38.629Z,55.29
2019-02-25T01:08:07.716Z,55.60
2019-02-25T01:10:37.144Z,56.19
2019-02-25T01:13:06.504Z,56.44
2019-02-25T01:15:32.699Z,56.54
2019-02-25T01:18:00.011Z,56.03
2019-02-25T01:20:26.282Z,55.93
2019-02-25T01:22:52.537Z,56.06
2019-02-25T01:25:19.021Z,56.65
2019-02-25T01:27:46.230Z,56.72
2019-02-25T01:30:14.367Z,56.88
2019-02-25T01:32:40.533Z,56.79
2019-02-25T01:35:09.897Z,56.97
2019-02-25T01:37:36.261Z,56.82
2019-02-25T01:40:09.604Z,56.48
2019-02-25T01:42:37.859Z,56.05
2019-02-25T01:45:09.758Z,55.96
2019-02-25T01:47:35.999Z,56.65
2019-02-25T01:50:04.921Z,57.00
2019-02-25T01:52:31.198Z,57.85
2019-02-25T01:54:57.340Z,59.18
2019-02-25T01:57:23.560Z,59.97
2019-02-25T01:59:49.773Z,60.19
2019-02-25T02:02:15.931Z,60.71
2019-02-25T02:04:43.145Z,61.55
2019-02-25T02:07:09.366Z,61.80
2019-02-25T02:09:35.527Z,62.00
2019-02-25T02:12:01.782Z,62.05
2019-02-25T02:14:27.857Z,62.07
2019-02-25T02:16:54.112Z,62.18
2019-02-25T02:19:20.189Z,62.65
2019-02-25T02:21:46.661Z,62.34
2019-02-25T02:24:12.787Z,62.93
2019-02-25T02:26:39.019Z,62.94
2019-02-25T02:29:08.558Z,63.49
2019-02-25T02:31:35.176Z,64.15
2019-02-25T02:34:07.363Z,63.85
2019-02-25T02:36:36.214Z,64.38
2019-02-25T02:39:05.129Z,64.74
2019-02-25T02:41:53.751Z,64.16
2019-02-25T02:44:20.191Z,64.28
2019-02-25T02:47:16.677Z,64.37
2019-02-25T02:49:42.775Z,64.44
2019-02-25T02:52:12.896Z,64.02
2019-02-25T02:54:41.576Z,63.59
2019-02-25T02:57:12.623Z,63.03
2019-02-25T02:59:38.804Z,62.57
2019-02-25T03:02:06.570Z,62.38
2019-02-25T03:04:32.765Z,62.91
2019-02-25T03:06:58.912Z,64.73
2019-02-25T03:09:25.054Z,64.37
2019-02-25T03:11:51.275Z,63.94
2019-02-25T03:14:17.678Z,63.51
2019-02-25T03:16:43.840Z,63.96
2019-02-25T03:19:10.066Z,64.33
2019-02-25T03:21:37.148Z,64.25
2019-02-25T03:24:03.423Z,64.41
2019-02-25T03:26:30.254Z,64.40
2019-02-25T03:28:56.789Z,64.55
2019-02-25T03:31:23.177Z,64.87
2019-02-25T03:33:49.418Z,64.62
2019-02-25T03:36:18.603Z,65.18
2019-02-25T03:38:44.801Z,65.38
2019-02-25T03:41:11.026Z,65.57
2019-02-25T03:43:38.579Z,65.61
2019-02-25T03:46:04.781Z,65.17
2019-02-25T03:48:30.873Z,65.14
2019-02-25T03:50:57.108Z,65.31
2019-02-25T03:53:26.534Z,65.15
2019-02-25T03:55:53.890Z,65.48
2019-02-25T03:58:20.064Z,65.31
2019-02-25T04:00:46.355Z,65.25
2019-02-25T04:03:15.719Z,65.63
2019-02-25T04:05:42.130Z,65.65
2019-02-25T04:08:09.553Z,65.13
2019-02-25T04:10:36.907Z,65.11
2019-02-25T04:13:03.277Z,64.92
2019-02-25T04:15:31.686Z,64.85
2019-02-25T04:18:00.671Z,64.67
2019-02-25T04:20:30.780Z,64.90
2019-02-25T04:22:56.991Z,65.20
2019-02-25T04:25:26.934Z,64.56
2019-02-25T04:27:57.123Z,64.23
2019-02-25T04:30:23.470Z,63.82
2019-02-25T04:32:49.553Z,63.72
2019-02-25T04:35:18.673Z,63.78
2019-02-25T04:37:45.115Z,63.54
2019-02-25T04:40:14.236Z,63.15
2019-02-25T04:42:41.678Z,62.79
2019-02-25T04:45:14.482Z,62.54
2019-02-25T04:47:43.244Z,62.50
2019-02-25T04:50:11.060Z,62.80
2019-02-25T04:52:37.146Z,62.23
2019-02-25T04:55:08.489Z,61.54
2019-02-25T04:57:34.674Z,61.48
2019-02-25T05:00:00.865Z,60.81
2019-02-25T05:02:27.007Z,60.73
2019-02-25T05:04:57.603Z,60.81
2019-02-25T05:07:25.588Z,61.02
2019-02-25T05:09:51.741Z,61.28
2019-02-25T05:12:17.945Z,62.23
2019-02-25T05:14:44.096Z,62.95
2019-02-25T05:17:10.250Z,63.83
2019-02-25T05:19:36.379Z,64.22
2019-02-25T05:22:02.552Z,65.02
2019-02-25T05:24:28.732Z,65.82
2019-02-25T05:26:54.968Z,66.29
2019-02-25T05:29:21.062Z,67.26
2019-02-25T05:31:47.467Z,66.99
2019-02-25T05:34:13.560Z,67.92
2019-02-25T05:36:41.475Z,68.11
2019-02-25T05:39:07.706Z,68.43
2019-02-25T05:41:33.917Z,68.66
2019-02-25T05:44:00.668Z,68.84
2019-02-25T05:46:27.290Z,68.86
2019-02-25T05:48:53.671Z,69.56
2019-02-25T05:51:19.864Z,70.13
2019-02-25T05:53:46.149Z,69.92
2019-02-25T05:56:12.364Z,69.61
2019-02-25T05:58:38.655Z,69.07
2019-02-25T06:01:05.790Z,69.51
2019-02-25T06:03:31.958Z,69.82
2019-02-25T06:05:58.167Z,69.52
2019-02-25T06:08:24.334Z,69.15
2019-02-25T06:10:52.777Z,69.17
2019-02-25T06:13:18.964Z,68.56
2019-02-25T06:15:45.100Z,68.35
2019-02-25T06:18:11.281Z,68.51
2019-02-25T06:20:37.575Z,68.05
2019-02-25T06:23:03.770Z,68.00
2019-02-25T06:25:29.986Z,67.98
2019-02-25T06:27:56.283Z,67.52
2019-02-25T06:30:22.641Z,67.54
2019-02-25T06:32:49.011Z,67.06
2019-02-25T06:35:15.281Z,67.09
2019-02-25T06:37:41.434Z,67.17
2019-02-25T06:40:10.578Z,67.15
2019-02-25T06:42:36.677Z,67.11
2019-02-25T06:45:06.315Z,67.15
2019-02-25T06:47:32.398Z,66.72
2019-02-25T06:49:58.781Z,66.20
2019-02-25T06:52:25.560Z,65.58
2019-02-25T06:54:54.640Z,64.98
2019-02-25T06:57:20.802Z,64.33
2019-02-25T06:59:53.108Z,64.37
2019-02-25T07:02:19.939Z,64.21
2019-02-25T07:04:47.943Z,63.77
2019-02-25T07:07:17.600Z,63.32
2019-02-25T07:09:51.535Z,63.42
2019-02-25T07:12:28.723Z,63.07
2019-02-25T07:14:56.961Z,64.72
2019-02-25T07:17:26.250Z,64.58
2019-02-25T07:20:01.307Z,63.84
2019-02-25T07:22:30.543Z,62.68
2019-02-25T07:25:04.222Z,62.36
2019-02-25T07:27:32.453Z,63.16
2019-02-25T07:30:00.494Z,62.58
2019-02-25T07:32:34.650Z,62.08
2019-02-25T07:35:11.451Z,60.87
2019-02-25T07:37:40.179Z,59.71
2019-02-25T07:40:12.162Z,59.58
2019-02-25T07:42:43.252Z,59.76
2019-02-25T07:45:14.359Z,60.04
2019-02-25T07:48:01.275Z,60.15
2019-02-25T07:50:32.294Z,60.55
2019-02-25T07:53:15.617Z,60.24
2019-02-25T07:55:43.637Z,61.29
2019-02-25T07:58:28.412Z,60.42
2019-02-25T08:00:59.854Z,60.02
2019-02-25T08:03:33.779Z,58.38
2019-02-25T08:06:07.931Z,57.08
2019-02-25T08:08:47.800Z,57.03
2019-02-25T08:11:15.893Z,56.31
2019-02-25T08:13:44.079Z,55.94
2019-02-25T08:16:18.144Z,55.66
2019-02-25T08:18:50.609Z,55.52
2019-02-25T08:21:35.733Z,55.36
2019-02-25T08:24:05.062Z,55.29
2019-02-25T08:26:39.299Z,55.65
2019-02-25T08:29:09.335Z,55.94
2019-02-25T08:31:46.590Z,55.00
2019-02-25T08:34:33.731Z,53.43
2019-02-25T08:37:08.658Z,52.06
2019-02-25T08:39:45.722Z,49.80
2019-02-25T08:42:17.572Z,49.56
2019-02-25T08:44:45.678Z,49.37
2019-02-25T08:47:19.931Z,48.23
2019-02-25T08:49:49.008Z,48.85
2019-02-25T08:52:15.324Z,46.67
2019-02-25T08:54:41.602Z,45.64
2019-02-25T08:57:07.836Z,45.61
2019-02-25T08:59:34.160Z,44.94
2019-02-25T09:02:00.414Z,43.38
2019-02-25T09:04:26.519Z,42.11
2019-02-25T09:06:54.191Z,40.31
2019-02-25T09:09:20.359Z,40.71
2019-02-25T09:11:46.570Z,40.26
2019-02-25T09:14:12.849Z,38.17
2019-02-25T09:16:39.021Z,38.69
2019-02-25T09:19:05.220Z,37.69
2019-02-25T09:21:32.157Z,37.43
2019-02-25T09:23:58.519Z,35.78
2019-02-25T09:26:24.818Z,34.34
2019-02-25T09:28:51.086Z,33.15
2019-02-25T09:31:17.410Z,33.19
2019-02-25T09:33:43.720Z,32.29
2019-02-25T09:36:09.948Z,30.95
2019-02-25T09:38:36.203Z,31.15
2019-02-25T09:41:02.379Z,30.64
2019-02-25T09:43:28.671Z,30.39
2019-02-25T09:45:54.850Z,29.38
2019-02-25T09:48:21.479Z,29.30
2019-02-25T09:50:47.884Z,27.88
2019-02-25T09:53:14.347Z,27.22
2019-02-25T09:55:40.553Z,27.48
2019-02-25T09:58:06.891Z,26.98
2019-02-25T10:00:34.873Z,27.05
2019-02-25T10:03:01.050Z,26.59
2019-02-25T10:05:27.407Z,26.26
2019-02-25T10:07:54.075Z,25.91
2019-02-25T10:10:20.880Z,25.34
2019-02-25T10:12:47.357Z,24.48
2019-02-25T10:15:16.554Z,24.49
2019-02-25T10:17:42.986Z,24.70
2019-02-25T10:20:11.146Z,24.66
2019-02-25T10:22:37.953Z,25.49
2019-02-25T10:25:06.929Z,24.90
2019-02-25T10:27:33.973Z,24.49
2019-02-25T10:30:00.298Z,24.45
2019-02-25T10:32:27.939Z,24.52
2019-02-25T10:34:54.532Z,24.92
2019-02-25T10:37:24.526Z,24.65
2019-02-25T10:39:51.464Z,23.71
2019-02-25T10:42:24.331Z,23.03
2019-02-25T10:44:51.880Z,22.04
2019-02-25T10:47:19.896Z,21.08
2019-02-25T10:49:46.233Z,21.15
2019-02-25T10:52:12.943Z,20.04
2019-02-25T10:54:40.707Z,20.04
2019-02-25T10:57:09.303Z,20.23
2019-02-25T10:59:41.340Z,19.84
2019-02-25T11:02:11.586Z,19.37
2019-02-25T11:04:38.559Z,19.00
2019-02-25T11:07:09.701Z,18.71
2019-02-25T11:09:42.039Z,18.68
2019-02-25T11:12:08.735Z,18.05
2019-02-25T11:14:35.859Z,17.93
2019-02-25T11:17:07.095Z,16.94
2019-02-25T11:19:36.030Z,17.27
2019-02-25T11:22:02.233Z,17.20
2019-02-25T11:24:28.969Z,16.79
2019-02-25T11:26:57.006Z,16.04
2019-02-25T11:29:28.285Z,15.97
2019-02-25T11:31:57.940Z,15.96
2019-02-25T11:34:24.141Z,16.82
2019-02-25T11:36:53.137Z,17.04
2019-02-25T11:39:21.583Z,16.94
2019-02-25T11:41:51.335Z,16.28
2019-02-25T11:44:19.033Z,16.42
2019-02-25T11:46:50.959Z,16.70
2019-02-25T11:49:20.460Z,16.45
2019-02-25T11:51:46.684Z,16.39
2019-02-25T11:54:13.880Z,16.53
2019-02-25T11:56:41.635Z,17.01
2019-02-25T11:59:08.314Z,17.32
2019-02-25T12:01:35.550Z,17.07
2019-02-25T12:04:01.719Z,16.93
2019-02-25T12:06:27.942Z,16.68
2019-02-25T12:08:54.050Z,17.00
2019-02-25T12:11:20.381Z,16.64
2019-02-25T12:13:46.533Z,16.86
2019-02-25T12:16:15.068Z,16.94
2019-02-25T12:18:41.184Z,17.17
2019-02-25T12:21:07.406Z,17.19
2019-02-25T12:23:33.723Z,17.52
2019-02-25T12:26:00.054Z,17.49
2019-02-25T12:28:26.155Z,17.73
2019-02-25T12:30:53.341Z,17.96
2019-02-25T12:33:19.529Z,17.56
2019-02-25T12:35:45.709Z,17.82
2019-02-25T12:38:11.865Z,17.68
2019-02-25T12:40:38.082Z,17.47
2019-02-25T12:43:04.481Z,16.97
2019-02-25T12:45:30.741Z,17.46
2019-02-25T12:47:56.933Z,17.53
2019-02-25T12:50:23.339Z,17.53
2019-02-25T12:52:49.693Z,17.78
2019-02-25T12:55:19.735Z,17.90
2019-02-25T12:57:45.900Z,17.70
2019-02-25T13:00:15.619Z,18.22
2019-02-25T13:02:42.019Z,17.45
2019-02-25T13:05:10.890Z,17.38
2019-02-25T13:07:37.243Z,17.49
2019-02-25T13:10:07.158Z,17.20
2019-02-25T13:12:33.367Z,17.50
2019-02-25T13:14:59.627Z,17.27
2019-02-25T13:17:25.740Z,16.94
2019-02-25T13:19:52.084Z,16.96
2019-02-25T13:22:18.282Z,17.58
2019-02-25T13:24:44.438Z,17.85
2019-02-25T13:27:11.772Z,18.04
2019-02-25T13:29:43.616Z,17.96
2019-02-25T13:32:13.147Z,18.12
2019-02-25T13:34:39.584Z,17.99
2019-02-25T13:37:06.337Z,17.85
2019-02-25T13:39:32.527Z,18.11
2019-02-25T13:41:58.756Z,18.05
2019-02-25T13:44:25.176Z,18.48
2019-02-25T13:46:51.472Z,18.54
2019-02-25T13:49:17.619Z,18.81
2019-02-25T13:51:43.882Z,18.70
2019-02-25T13:54:10.174Z,19.18
2019-02-25T13:56:36.576Z,19.10
2019-02-25T13:59:03.209Z,19.75
2019-02-25T14:01:29.584Z,19.95
2019-02-25T14:04:05.853Z,20.31
2019-02-25T14:06:32.293Z,20.93
2019-02-25T14:08:58.501Z,21.10
2019-02-25T14:11:24.836Z,21.43
2019-02-25T14:13:51.241Z,21.80
2019-02-25T14:16:17.785Z,22.57
2019-02-25T14:18:44.313Z,22.33
2019-02-25T14:21:10.974Z,23.02
2019-02-25T14:23:38.333Z,23.29
2019-02-25T14:26:05.187Z,24.21
2019-02-25T14:28:31.400Z,24.68
2019-02-25T14:30:57.796Z,24.91
2019-02-25T14:33:24.170Z,24.81
2019-02-25T14:35:53.170Z,25.23
2019-02-25T14:38:20.429Z,25.45
2019-02-25T14:40:48.779Z,25.72
2019-02-25T14:43:15.686Z,26.28
2019-02-25T14:45:46.407Z,26.94
2019-02-25T14:48:18.191Z,27.32
2019-02-25T14:50:42.009Z,27.04
2019-02-25T14:53:11.293Z,27.04
2019-02-25T14:55:36.860Z,27.12
2019-02-25T14:58:06.760Z,27.14
2019-02-25T15:00:34.820Z,27.19
2019-02-25T15:02:59.740Z,27.02
2019-02-25T15:05:26.134Z,26.87
2019-02-25T15:07:55.432Z,27.32
2019-02-25T15:10:26.557Z,27.66
2019-02-25T15:12:53.748Z,27.95
2019-02-25T15:15:20.567Z,27.76
2019-02-25T15:17:48.128Z,28.07
2019-02-25T15:20:18.266Z,28.16
2019-02-25T15:22:45.036Z,28.68
2019-02-25T15:32:06.581Z,29.29
2019-02-25T15:34:34.380Z,29.73
2019-02-25T15:37:24.112Z,30.29
2019-02-25T15:44:02.397Z,30.95
2019-02-25T15:46:40.521Z,31.04
2019-02-25T15:49:07.718Z,31.19
2019-02-25T15:51:35.067Z,31.33
2019-02-25T15:54:02.933Z,31.57
2019-02-25T15:56:31.931Z,31.78
2019-02-25T15:58:58.375Z,32.17
2019-02-25T16:01:24.655Z,32.31
2019-02-25T16:03:51.169Z,32.50
2019-02-25T16:06:17.748Z,32.56
2019-02-25T16:08:47.493Z,32.68
2019-02-25T16:11:14.021Z,32.75
2019-02-25T16:13:40.651Z,32.91
2019-02-25T16:16:07.381Z,33.23
2019-02-25T16:18:33.842Z,33.67
2019-02-25T16:21:00.300Z,34.12
2019-02-25T16:23:27.871Z,34.65
2019-02-25T16:25:55.338Z,34.54
2019-02-25T16:28:22.966Z,35.20
2019-02-25T16:30:51.231Z,35.98
2019-02-25T16:33:17.424Z,36.77
2019-02-25T16:35:45.652Z,37.77
2019-02-25T16:38:12.917Z,38.96
2019-02-25T16:40:40.186Z,39.55
2019-02-25T16:43:09.720Z,40.40
2019-02-25T16:49:34.326Z,41.66
2019-02-25T16:52:02.316Z,42.25
2019-02-25T16:54:28.584Z,42.79
2019-02-25T16:56:55.459Z,43.25
2019-02-25T16:59:23.031Z,43.74
2019-02-25T17:01:49.888Z,44.13
2019-02-25T17:04:19.748Z,44.72
2019-02-25T17:06:44.233Z,45.49
2019-02-25T17:09:15.968Z,45.67
2019-02-25T17:11:43.991Z,45.29
2019-02-25T17:14:11.768Z,45.83
2019-02-25T17:16:38.091Z,45.03
2019-02-25T17:19:04.537Z,45.28
2019-02-25T17:21:30.798Z,45.35
2019-02-25T17:23:58.178Z,45.60
2019-02-25T17:26:25.088Z,45.48
2019-02-25T17:28:51.208Z,45.52
2019-02-25T17:31:18.689Z,45.83
2019-02-25T17:33:46.715Z,46.14
2019-02-25T17:36:14.677Z,46.80
2019-02-25T17:38:43.133Z,47.72
2019-02-25T17:41:10.803Z,48.43
2019-02-25T17:43:39.100Z,48.38
2019-02-25T17:46:06.982Z,48.12
2019-02-25T17:48:34.572Z,48.45
2019-02-25T17:51:01.677Z,48.73
2019-02-25T17:53:31.045Z,49.18
2019-02-25T17:55:59.873Z,49.78
2019-02-25T17:58:27.302Z,50.67
2019-02-25T18:00:54.152Z,50.73
2019-02-25T18:03:22.547Z,51.14
2019-02-25T18:05:50.037Z,50.20
2019-02-25T18:08:16.469Z,50.40
2019-02-25T18:10:43.675Z,50.29
2019-02-25T18:13:11.088Z,50.05
2019-02-25T18:15:37.670Z,49.88
2019-02-25T18:18:07.040Z,49.20
2019-02-25T18:20:32.481Z,48.88
2019-02-25T18:22:59.821Z,48.31
2019-02-25T18:25:26.262Z,49.01
2019-02-25T18:27:52.613Z,49.74
2019-02-25T18:30:23.327Z,49.11
2019-02-25T18:32:50.523Z,49.51
2019-02-25T18:35:20.639Z,49.66
2019-02-25T18:37:47.272Z,50.10
2019-02-25T18:40:16.347Z,50.29
2019-02-25T18:42:44.107Z,50.76
2019-02-25T18:45:16.529Z,50.97
2019-02-25T18:47:44.355Z,51.32
2019-02-25T18:50:21.685Z,51.61
2019-02-25T18:52:50.253Z,51.58
2019-02-25T18:55:19.367Z,51.65
2019-02-25T18:57:47.718Z,51.62
2019-02-25T19:00:20.532Z,51.75
2019-02-25T19:02:48.169Z,51.97
2019-02-25T19:05:15.792Z,52.72
2019-02-25T19:07:44.446Z,53.23
2019-02-25T19:59:26.269Z,54.68
2019-02-25T20:01:53.023Z,54.79
2019-02-25T20:04:20.689Z,55.15
2019-02-25T20:06:48.935Z,55.26
2019-02-25T20:09:16.626Z,55.70
2019-02-25T20:11:45.284Z,56.12
2019-02-25T20:14:11.189Z,56.21
2019-02-25T20:16:37.686Z,56.63
2019-02-25T20:19:04.655Z,56.84
2019-02-25T20:21:32.100Z,57.19
2019-02-25T20:23:58.302Z,57.25
2019-02-25T20:26:26.845Z,57.17
2019-02-25T20:28:54.485Z,56.67
2019-02-25T20:31:21.224Z,56.72
2019-02-25T20:33:47.431Z,57.10
2019-02-25T20:36:17.238Z,57.57
2019-02-25T20:38:41.670Z,57.78
2019-02-25T20:41:08.123Z,57.70
2019-02-25T20:43:34.421Z,57.78
2019-02-25T20:46:03.236Z,57.76
2019-02-25T20:48:29.155Z,57.71
2019-02-25T20:50:55.386Z,57.57
2019-02-25T20:53:22.975Z,57.29
2019-02-25T20:55:50.796Z,57.04
2019-02-25T20:58:18.825Z,56.57
2019-02-25T21:00:47.036Z,56.21
2019-02-25T21:03:16.166Z,56.46
2019-02-25T21:05:42.344Z,55.87
2019-02-25T21:08:08.568Z,55.39
2019-02-25T21:10:35.686Z,55.51
2019-02-25T21:13:02.384Z,55.47
2019-02-25T21:15:33.150Z,55.65
2019-02-25T21:17:59.978Z,55.28
2019-02-25T21:20:28.838Z,55.03
2019-02-25T21:22:57.300Z,54.96
2019-02-25T21:25:26.456Z,54.43
2019-02-25T21:27:50.738Z,53.89
2019-02-25T21:30:20.449Z,53.77
2019-02-25T21:32:47.392Z,53.48
2019-02-25T21:35:16.285Z,53.68
2019-02-25T21:37:47.329Z,53.88
2019-02-25T21:40:14.126Z,54.11
2019-02-25T21:42:43.921Z,53.71
2019-02-25T21:45:18.024Z,53.80
2019-02-25T21:47:43.582Z,54.17
2019-02-25T21:50:12.118Z,54.61
2019-02-25T21:52:38.906Z,55.11
2019-02-25T21:55:09.374Z,55.73
2019-02-25T21:57:37.627Z,55.85
2019-02-25T22:00:19.098Z,56.37
2019-02-25T22:02:48.227Z,57.11
2019-02-25T22:05:16.710Z,57.61
2019-02-25T22:07:44.803Z,58.13
2019-02-25T22:10:12.484Z,59.22
2019-02-25T22:12:40.528Z,59.95
2019-02-25T22:15:13.608Z,59.85
2019-02-25T22:17:43.343Z,59.58
2019-02-25T22:20:14.387Z,59.84
2019-02-25T22:22:41.356Z,59.10
2019-02-25T22:25:20.181Z,58.36
2019-02-25T22:27:46.631Z,56.90
2019-02-25T22:30:16.921Z,56.39
2019-02-25T22:32:43.390Z,55.76
2019-02-25T22:35:12.835Z,54.81
2019-02-25T22:37:39.117Z,54.46
2019-02-25T22:40:15.059Z,53.71
2019-02-25T22:42:42.052Z,53.46
2019-02-25T22:45:16.440Z,53.61
2019-02-25T22:47:43.021Z,54.46
2019-02-25T22:50:15.126Z,55.09
2019-02-25T22:52:41.347Z,55.79
2019-02-25T22:55:12.958Z,56.51
2019-02-25T22:57:40.975Z,56.13
2019-02-25T23:00:33.547Z,55.73
2019-02-25T23:03:02.003Z,55.23
2019-02-25T23:05:29.378Z,55.03
2019-02-25T23:07:55.576Z,55.03
2019-02-25T23:10:24.216Z,55.45
2019-02-25T23:12:55.285Z,55.49
2019-02-25T23:15:23.301Z,55.02
2019-02-25T23:17:49.756Z,54.93
2019-02-25T23:20:15.971Z,55.16
2019-02-25T23:22:42.271Z,55.81
2019-02-25T23:25:09.872Z,55.41
2019-02-25T23:27:38.580Z,55.20
2019-02-25T23:30:08.539Z,55.27
2019-02-25T23:32:38.838Z,54.80
2019-02-25T23:35:09.429Z,54.73
2019-02-25T23:37:34.056Z,54.94
2019-02-25T23:40:04.445Z,55.11
2019-02-25T23:42:37.102Z,54.73
2019-02-25T23:45:05.786Z,55.02
2019-02-25T23:47:34.032Z,54.81
2019-02-25T23:50:01.181Z,55.37
2019-02-25T23:52:33.656Z,55.58
2019-02-25T23:55:00.237Z,56.28
2019-02-25T23:57:28.743Z,55.94
2019-02-25T23:59:55.758Z,55.36
